TRA5PT EHEH-LFLC
Flight info
| Callsign | TRA5PT |
|---|---|
| Flight time | 1h 7m |
| Altitude | 35000 |
| Route | LNO Z283 SOPOK DCT TOLVU DCT KOTIS/N0369F190 A3 ATRID |
| Aircraft | A321/M-SDE3FGHIRWY/LB1 |
Departure
| Time | 2026-05-01 14:07 |
|---|---|
| Airport | Eindhoven Airport (EHEH) |
Arrival
| Time | 2026-05-01 15:14 |
|---|---|
| Airport | Clermont-Ferrand Auvergne airport (LFLC) |
| Time | Latitude | Longitude | Altitude | Speed | Heading |
|---|---|---|---|---|---|
| 2026-05-01 13:41 | 51.45856 | 5.39054 | 102 ft | 0 kts | 125° |
| 2026-05-01 13:59 | 51.45859 | 5.39049 | 75 ft | 3 kts | 125° |
| 2026-05-01 13:59 | 51.45874 | 5.39015 | 64 ft | 4 kts | 125° |
| 2026-05-01 14:00 | 51.45888 | 5.38979 | 67 ft | 4 kts | 112° |
| 2026-05-01 14:00 | 51.45891 | 5.38947 | 68 ft | 4 kts | 50° |
| 2026-05-01 14:00 | 51.45871 | 5.38923 | 66 ft | 3 kts | 34° |
| 2026-05-01 14:00 | 51.45869 | 5.38920 | 64 ft | 0 kts | 35° |
| 2026-05-01 14:04 | 51.45874 | 5.38925 | 69 ft | 4 kts | 35° |
| 2026-05-01 14:04 | 51.45912 | 5.38969 | 72 ft | 7 kts | 35° |
| 2026-05-01 14:04 | 51.45953 | 5.38994 | 73 ft | 6 kts | 353° |
| 2026-05-01 14:05 | 51.45992 | 5.38935 | 67 ft | 8 kts | 307° |
| 2026-05-01 14:05 | 51.46022 | 5.38871 | 73 ft | 7 kts | 306° |
| 2026-05-01 14:05 | 51.46046 | 5.38815 | 72 ft | 6 kts | 304° |
| 2026-05-01 14:05 | 51.46071 | 5.38756 | 65 ft | 10 kts | 304° |
| 2026-05-01 14:06 | 51.46072 | 5.38644 | 64 ft | 11 kts | 227° |
| 2026-05-01 14:06 | 51.46010 | 5.38566 | 68 ft | 15 kts | 217° |
| 2026-05-01 14:06 | 51.45742 | 5.38272 | 73 ft | 81 kts | 215° |
| 2026-05-01 14:06 | 51.45115 | 5.37572 | 65 ft | 136 kts | 215° |
| 2026-05-01 14:07 | 51.44227 | 5.36590 | 207 ft | 165 kts | 210° |
| 2026-05-01 14:07 | 51.43330 | 5.35578 | 917 ft | 159 kts | 210° |
| 2026-05-01 14:07 | 51.42433 | 5.34575 | 1521 ft | 158 kts | 207° |
| 2026-05-01 14:08 | 51.40513 | 5.32476 | 2392 ft | 182 kts | 204° |
| 2026-05-01 14:08 | 51.39267 | 5.31897 | 2583 ft | 198 kts | 180° |
| 2026-05-01 14:08 | 51.37874 | 5.32286 | 2805 ft | 213 kts | 154° |
| 2026-05-01 14:08 | 51.36691 | 5.33793 | 3230 ft | 225 kts | 126° |
| 2026-05-01 14:09 | 51.36107 | 5.36098 | 3993 ft | 228 kts | 100° |
| 2026-05-01 14:09 | 51.36308 | 5.38649 | 4669 ft | 238 kts | 73° |
| 2026-05-01 14:09 | 51.36810 | 5.41184 | 5304 ft | 240 kts | 85° |
| 2026-05-01 14:09 | 51.36768 | 5.43891 | 5679 ft | 253 kts | 109° |
| 2026-05-01 14:10 | 51.35902 | 5.46353 | 6101 ft | 259 kts | 138° |
| 2026-05-01 14:10 | 51.34372 | 5.47845 | 6742 ft | 261 kts | 165° |
| 2026-05-01 14:10 | 51.32589 | 5.48455 | 7438 ft | 263 kts | 169° |
| 2026-05-01 14:10 | 51.30781 | 5.49008 | 8154 ft | 266 kts | 169° |
| 2026-05-01 14:11 | 51.28956 | 5.49561 | 8849 ft | 269 kts | 169° |
| 2026-05-01 14:11 | 51.25241 | 5.50701 | 10221 ft | 275 kts | 169° |
| 2026-05-01 14:11 | 51.23325 | 5.51294 | 10605 ft | 291 kts | 169° |
| 2026-05-01 14:12 | 51.21263 | 5.51930 | 10742 ft | 312 kts | 169° |
| 2026-05-01 14:12 | 51.19066 | 5.52605 | 11033 ft | 328 kts | 169° |
| 2026-05-01 14:12 | 51.16832 | 5.53291 | 11601 ft | 333 kts | 169° |
| 2026-05-01 14:12 | 51.14546 | 5.53997 | 12249 ft | 337 kts | 169° |
| 2026-05-01 14:13 | 51.12237 | 5.54712 | 12886 ft | 340 kts | 168° |
| 2026-05-01 14:13 | 51.10660 | 5.55200 | 13320 ft | 342 kts | 168° |
| 2026-05-01 14:13 | 51.07544 | 5.56159 | 14172 ft | 346 kts | 168° |
| 2026-05-01 14:13 | 51.05166 | 5.56885 | 14754 ft | 350 kts | 168° |
| 2026-05-01 14:14 | 51.02764 | 5.57618 | 15312 ft | 353 kts | 168° |
| 2026-05-01 14:14 | 51.00345 | 5.58357 | 15879 ft | 356 kts | 168° |
| 2026-05-01 14:14 | 50.97902 | 5.59107 | 16448 ft | 359 kts | 168° |
| 2026-05-01 14:14 | 50.95434 | 5.59864 | 16986 ft | 362 kts | 168° |
| 2026-05-01 14:15 | 50.92934 | 5.60626 | 17529 ft | 365 kts | 168° |
| 2026-05-01 14:15 | 50.90440 | 5.61384 | 18062 ft | 369 kts | 168° |
| 2026-05-01 14:15 | 50.87910 | 5.62152 | 18581 ft | 372 kts | 168° |
| 2026-05-01 14:15 | 50.85353 | 5.62926 | 19038 ft | 375 kts | 168° |
| 2026-05-01 14:16 | 50.82771 | 5.63711 | 19488 ft | 379 kts | 168° |
| 2026-05-01 14:16 | 50.80180 | 5.64502 | 19927 ft | 382 kts | 168° |
| 2026-05-01 14:16 | 50.77560 | 5.65300 | 20377 ft | 385 kts | 168° |
| 2026-05-01 14:16 | 50.74919 | 5.66098 | 20821 ft | 387 kts | 168° |
| 2026-05-01 14:17 | 50.72261 | 5.66899 | 21271 ft | 390 kts | 168° |
| 2026-05-01 14:17 | 50.69585 | 5.67704 | 21703 ft | 393 kts | 168° |
| 2026-05-01 14:17 | 50.66885 | 5.68517 | 22133 ft | 396 kts | 168° |
| 2026-05-01 14:17 | 50.64205 | 5.69326 | 22546 ft | 399 kts | 168° |
| 2026-05-01 14:18 | 50.61469 | 5.70154 | 22970 ft | 402 kts | 168° |
| 2026-05-01 14:18 | 50.58714 | 5.70982 | 23386 ft | 405 kts | 168° |
| 2026-05-01 14:18 | 50.55922 | 5.71700 | 23789 ft | 408 kts | 170° |
| 2026-05-01 14:18 | 50.54011 | 5.72105 | 24011 ft | 411 kts | 171° |
| 2026-05-01 14:19 | 50.50240 | 5.72789 | 24467 ft | 414 kts | 173° |
| 2026-05-01 14:19 | 50.47361 | 5.73266 | 24816 ft | 416 kts | 172° |
| 2026-05-01 14:19 | 50.44472 | 5.73750 | 25159 ft | 419 kts | 172° |
| 2026-05-01 14:19 | 50.41572 | 5.74262 | 25504 ft | 421 kts | 172° |
| 2026-05-01 14:20 | 50.38661 | 5.74802 | 25837 ft | 423 kts | 172° |
| 2026-05-01 14:20 | 50.32794 | 5.75934 | 26505 ft | 427 kts | 172° |
| 2026-05-01 14:20 | 50.29838 | 5.76501 | 26842 ft | 429 kts | 173° |
| 2026-05-01 14:21 | 50.26847 | 5.76654 | 27164 ft | 432 kts | 182° |
| 2026-05-01 14:21 | 50.23862 | 5.76022 | 27491 ft | 435 kts | 192° |
| 2026-05-01 14:21 | 50.20970 | 5.74613 | 27821 ft | 438 kts | 201° |
| 2026-05-01 14:22 | 50.15326 | 5.70930 | 28478 ft | 441 kts | 201° |
| 2026-05-01 14:22 | 50.12488 | 5.69087 | 28788 ft | 443 kts | 201° |
| 2026-05-01 14:22 | 50.09641 | 5.67248 | 29078 ft | 444 kts | 201° |
| 2026-05-01 14:22 | 50.06780 | 5.65403 | 29367 ft | 446 kts | 201° |
| 2026-05-01 14:23 | 50.03901 | 5.63552 | 29659 ft | 448 kts | 201° |
| 2026-05-01 14:23 | 50.01015 | 5.61699 | 29949 ft | 449 kts | 201° |
| 2026-05-01 14:23 | 49.98126 | 5.59848 | 30245 ft | 451 kts | 201° |
| 2026-05-01 14:23 | 49.95220 | 5.57986 | 30498 ft | 453 kts | 201° |
| 2026-05-01 14:24 | 49.92310 | 5.56117 | 30832 ft | 451 kts | 201° |
| 2026-05-01 14:24 | 49.89419 | 5.54259 | 31236 ft | 449 kts | 201° |
| 2026-05-01 14:24 | 49.86539 | 5.52411 | 31642 ft | 447 kts | 201° |
| 2026-05-01 14:24 | 49.83675 | 5.50582 | 32033 ft | 445 kts | 201° |
| 2026-05-01 14:25 | 49.80818 | 5.48761 | 32413 ft | 443 kts | 201° |
| 2026-05-01 14:25 | 49.78009 | 5.46978 | 32787 ft | 441 kts | 201° |
| 2026-05-01 14:25 | 49.75135 | 5.45158 | 33168 ft | 440 kts | 201° |
| 2026-05-01 14:25 | 49.72346 | 5.43393 | 33516 ft | 439 kts | 201° |
| 2026-05-01 14:26 | 49.69523 | 5.41606 | 33878 ft | 437 kts | 201° |
| 2026-05-01 14:26 | 49.63919 | 5.38027 | 34536 ft | 435 kts | 205° |
| 2026-05-01 14:26 | 49.61278 | 5.35731 | 34790 ft | 436 kts | 214° |
| 2026-05-01 14:27 | 49.58840 | 5.32969 | 35045 ft | 436 kts | 216° |
| 2026-05-01 14:27 | 49.56404 | 5.30177 | 35225 ft | 436 kts | 215° |
| 2026-05-01 14:27 | 49.53974 | 5.27414 | 35267 ft | 433 kts | 215° |
| 2026-05-01 14:28 | 49.46717 | 5.19237 | 35262 ft | 430 kts | 215° |
| 2026-05-01 14:28 | 49.41887 | 5.13803 | 35258 ft | 430 kts | 215° |
| 2026-05-01 14:29 | 49.37065 | 5.08381 | 35256 ft | 430 kts | 215° |
| 2026-05-01 14:30 | 49.27426 | 4.97580 | 35254 ft | 429 kts | 214° |
| 2026-05-01 14:31 | 49.20191 | 4.89504 | 35251 ft | 429 kts | 214° |
| 2026-05-01 14:31 | 49.15376 | 4.84130 | 35260 ft | 429 kts | 214° |
| 2026-05-01 14:32 | 49.10589 | 4.78809 | 35252 ft | 428 kts | 214° |
| 2026-05-01 14:32 | 49.05774 | 4.73480 | 35252 ft | 428 kts | 214° |
| 2026-05-01 14:33 | 49.00958 | 4.68163 | 35250 ft | 427 kts | 214° |
| 2026-05-01 14:33 | 48.96147 | 4.62867 | 35250 ft | 427 kts | 214° |
| 2026-05-01 14:34 | 48.91332 | 4.57579 | 35245 ft | 426 kts | 213° |
| 2026-05-01 14:34 | 48.86527 | 4.52311 | 35241 ft | 426 kts | 213° |
| 2026-05-01 14:35 | 48.81722 | 4.47051 | 35235 ft | 426 kts | 213° |
| 2026-05-01 14:35 | 48.76915 | 4.41805 | 35234 ft | 426 kts | 213° |
| 2026-05-01 14:36 | 48.72107 | 4.36580 | 35232 ft | 425 kts | 213° |
| 2026-05-01 14:36 | 48.67301 | 4.31357 | 35233 ft | 425 kts | 213° |
| 2026-05-01 14:37 | 48.62493 | 4.26151 | 35232 ft | 425 kts | 213° |
| 2026-05-01 14:37 | 48.57685 | 4.20965 | 35233 ft | 425 kts | 213° |
| 2026-05-01 14:38 | 48.52875 | 4.15778 | 35235 ft | 424 kts | 212° |
| 2026-05-01 14:38 | 48.48880 | 4.11476 | 35232 ft | 424 kts | 213° |
| 2026-05-01 14:39 | 48.43297 | 4.05480 | 35229 ft | 424 kts | 212° |
| 2026-05-01 14:39 | 48.38493 | 4.00342 | 35230 ft | 424 kts | 212° |
| 2026-05-01 14:40 | 48.34467 | 3.96041 | 35230 ft | 423 kts | 212° |
| 2026-05-01 14:40 | 48.29664 | 3.90923 | 35233 ft | 423 kts | 212° |
| 2026-05-01 14:41 | 48.24895 | 3.85850 | 35229 ft | 423 kts | 213° |
| 2026-05-01 14:41 | 48.20087 | 3.80754 | 35227 ft | 423 kts | 213° |
| 2026-05-01 14:42 | 48.15288 | 3.75668 | 35225 ft | 423 kts | 213° |
| 2026-05-01 14:42 | 48.10488 | 3.70604 | 35225 ft | 423 kts | 213° |
| 2026-05-01 14:43 | 48.05670 | 3.65541 | 35227 ft | 423 kts | 213° |
| 2026-05-01 14:43 | 48.00857 | 3.60489 | 35228 ft | 423 kts | 213° |
| 2026-05-01 14:44 | 47.96049 | 3.55441 | 35225 ft | 423 kts | 213° |
| 2026-05-01 14:44 | 47.88821 | 3.47885 | 35230 ft | 423 kts | 213° |
| 2026-05-01 14:45 | 47.81598 | 3.40358 | 35230 ft | 423 kts | 214° |
| 2026-05-01 14:46 | 47.76777 | 3.35346 | 35231 ft | 422 kts | 214° |
| 2026-05-01 14:46 | 47.69553 | 3.27853 | 35234 ft | 422 kts | 214° |
| 2026-05-01 14:47 | 47.64741 | 3.22883 | 35235 ft | 421 kts | 215° |
| 2026-05-01 14:48 | 47.57555 | 3.15476 | 35179 ft | 421 kts | 215° |
| 2026-05-01 14:48 | 47.55153 | 3.13010 | 34959 ft | 420 kts | 215° |
| 2026-05-01 14:48 | 47.50348 | 3.08093 | 34464 ft | 419 kts | 215° |
| 2026-05-01 14:49 | 47.45538 | 3.03170 | 33299 ft | 423 kts | 215° |
| 2026-05-01 14:49 | 47.40760 | 2.98301 | 32347 ft | 414 kts | 214° |
| 2026-05-01 14:50 | 47.36843 | 2.94313 | 31494 ft | 409 kts | 214° |
| 2026-05-01 14:50 | 47.31412 | 2.88779 | 30340 ft | 403 kts | 214° |
| 2026-05-01 14:51 | 47.29107 | 2.86472 | 29785 ft | 399 kts | 211° |
| 2026-05-01 14:51 | 47.23869 | 2.84490 | 28814 ft | 392 kts | 177° |
| 2026-05-01 14:52 | 47.18830 | 2.87365 | 27683 ft | 399 kts | 143° |
| 2026-05-01 14:52 | 47.16886 | 2.90286 | 27114 ft | 401 kts | 135° |
| 2026-05-01 14:52 | 47.13194 | 2.96348 | 26137 ft | 394 kts | 136° |
| 2026-05-01 14:53 | 47.11356 | 2.99292 | 25699 ft | 389 kts | 136° |
| 2026-05-01 14:53 | 47.09526 | 3.02185 | 25258 ft | 385 kts | 136° |
| 2026-05-01 14:53 | 47.07706 | 3.05043 | 24826 ft | 381 kts | 136° |
| 2026-05-01 14:53 | 47.05903 | 3.07871 | 24391 ft | 377 kts | 136° |
| 2026-05-01 14:54 | 47.04123 | 3.10662 | 23968 ft | 373 kts | 136° |
| 2026-05-01 14:54 | 47.02357 | 3.13432 | 23484 ft | 370 kts | 136° |
| 2026-05-01 14:54 | 47.00618 | 3.16163 | 23047 ft | 364 kts | 136° |
| 2026-05-01 14:54 | 46.98900 | 3.18867 | 22617 ft | 359 kts | 136° |
| 2026-05-01 14:55 | 46.97230 | 3.21495 | 22194 ft | 355 kts | 136° |
| 2026-05-01 14:55 | 46.95535 | 3.24160 | 21764 ft | 351 kts | 136° |
| 2026-05-01 14:55 | 46.93901 | 3.26729 | 21353 ft | 348 kts | 136° |
| 2026-05-01 14:55 | 46.92258 | 3.29303 | 20923 ft | 345 kts | 136° |
| 2026-05-01 14:56 | 46.90626 | 3.31853 | 20491 ft | 342 kts | 136° |
| 2026-05-01 14:56 | 46.89005 | 3.34386 | 20063 ft | 340 kts | 136° |
| 2026-05-01 14:56 | 46.87380 | 3.36867 | 19645 ft | 336 kts | 141° |
| 2026-05-01 14:56 | 46.85524 | 3.38877 | 19231 ft | 329 kts | 153° |
| 2026-05-01 14:57 | 46.83446 | 3.40213 | 18827 ft | 324 kts | 165° |
| 2026-05-01 14:57 | 46.79034 | 3.40946 | 17977 ft | 317 kts | 180° |
| 2026-05-01 14:57 | 46.76838 | 3.40975 | 17582 ft | 314 kts | 180° |
| 2026-05-01 14:58 | 46.74658 | 3.41010 | 17194 ft | 311 kts | 180° |
| 2026-05-01 14:58 | 46.72506 | 3.41045 | 16813 ft | 308 kts | 180° |
| 2026-05-01 14:58 | 46.70371 | 3.41082 | 16434 ft | 306 kts | 180° |
| 2026-05-01 14:58 | 46.68252 | 3.41116 | 16063 ft | 304 kts | 180° |
| 2026-05-01 14:59 | 46.66143 | 3.41148 | 15687 ft | 302 kts | 180° |
| 2026-05-01 14:59 | 46.64047 | 3.41180 | 15317 ft | 300 kts | 180° |
| 2026-05-01 14:59 | 46.61956 | 3.41213 | 14986 ft | 304 kts | 179° |
| 2026-05-01 14:59 | 46.59811 | 3.41250 | 14673 ft | 311 kts | 180° |
| 2026-05-01 15:00 | 46.55482 | 3.41319 | 14035 ft | 311 kts | 179° |
| 2026-05-01 15:00 | 46.53324 | 3.41352 | 13693 ft | 309 kts | 179° |
| 2026-05-01 15:00 | 46.51174 | 3.41386 | 13369 ft | 308 kts | 180° |
| 2026-05-01 15:01 | 46.49036 | 3.41464 | 13061 ft | 307 kts | 177° |
| 2026-05-01 15:01 | 46.46909 | 3.41694 | 12791 ft | 306 kts | 175° |
| 2026-05-01 15:01 | 46.44791 | 3.42005 | 12503 ft | 305 kts | 174° |
| 2026-05-01 15:01 | 46.42683 | 3.42340 | 12226 ft | 304 kts | 174° |
| 2026-05-01 15:02 | 46.40581 | 3.42668 | 11948 ft | 303 kts | 174° |
| 2026-05-01 15:02 | 46.39194 | 3.42879 | 11764 ft | 303 kts | 175° |
| 2026-05-01 15:02 | 46.36396 | 3.43289 | 11396 ft | 301 kts | 175° |
| 2026-05-01 15:02 | 46.34312 | 3.43585 | 11117 ft | 301 kts | 175° |
| 2026-05-01 15:03 | 46.32257 | 3.43873 | 10840 ft | 300 kts | 175° |
| 2026-05-01 15:03 | 46.30184 | 3.44160 | 10563 ft | 299 kts | 175° |
| 2026-05-01 15:03 | 46.28124 | 3.44445 | 10365 ft | 292 kts | 175° |
| 2026-05-01 15:03 | 46.26131 | 3.44719 | 10237 ft | 284 kts | 175° |
| 2026-05-01 15:04 | 46.24191 | 3.44986 | 10046 ft | 278 kts | 175° |
| 2026-05-01 15:04 | 46.22281 | 3.45246 | 9859 ft | 275 kts | 175° |
| 2026-05-01 15:04 | 46.20377 | 3.45509 | 9644 ft | 274 kts | 175° |
| 2026-05-01 15:04 | 46.18479 | 3.45773 | 9411 ft | 273 kts | 175° |
| 2026-05-01 15:05 | 46.16590 | 3.46032 | 9168 ft | 272 kts | 175° |
| 2026-05-01 15:05 | 46.14705 | 3.46287 | 8938 ft | 272 kts | 175° |
| 2026-05-01 15:05 | 46.12831 | 3.46542 | 8702 ft | 270 kts | 175° |
| 2026-05-01 15:05 | 46.10958 | 3.46798 | 8458 ft | 270 kts | 175° |
| 2026-05-01 15:06 | 46.09124 | 3.47050 | 8226 ft | 270 kts | 175° |
| 2026-05-01 15:06 | 46.07253 | 3.47308 | 7997 ft | 270 kts | 175° |
| 2026-05-01 15:06 | 46.05389 | 3.47563 | 7758 ft | 269 kts | 175° |
| 2026-05-01 15:06 | 46.03534 | 3.47816 | 7531 ft | 267 kts | 175° |
| 2026-05-01 15:07 | 46.01679 | 3.48078 | 7301 ft | 267 kts | 174° |
| 2026-05-01 15:07 | 45.99843 | 3.48402 | 7056 ft | 266 kts | 173° |
| 2026-05-01 15:07 | 45.97989 | 3.48772 | 6652 ft | 268 kts | 172° |
| 2026-05-01 15:07 | 45.96154 | 3.49149 | 6374 ft | 265 kts | 172° |
| 2026-05-01 15:08 | 45.94335 | 3.49523 | 6130 ft | 264 kts | 172° |
| 2026-05-01 15:08 | 45.92520 | 3.49893 | 5898 ft | 263 kts | 173° |
| 2026-05-01 15:08 | 45.90710 | 3.50254 | 5657 ft | 263 kts | 173° |
| 2026-05-01 15:08 | 45.88926 | 3.50604 | 5432 ft | 262 kts | 173° |
| 2026-05-01 15:09 | 45.87125 | 3.50957 | 5242 ft | 259 kts | 173° |
| 2026-05-01 15:09 | 45.85371 | 3.51301 | 5109 ft | 250 kts | 173° |
| 2026-05-01 15:09 | 45.83682 | 3.51467 | 5016 ft | 238 kts | 191° |
| 2026-05-01 15:09 | 45.82273 | 3.50399 | 4920 ft | 233 kts | 229° |
| 2026-05-01 15:10 | 45.81615 | 3.48295 | 4709 ft | 236 kts | 257° |
| 2026-05-01 15:10 | 45.81226 | 3.43594 | 4349 ft | 238 kts | 262° |
| 2026-05-01 15:10 | 45.81025 | 3.41236 | 4089 ft | 240 kts | 260° |
| 2026-05-01 15:11 | 45.80800 | 3.38896 | 3814 ft | 236 kts | 260° |
| 2026-05-01 15:11 | 45.80361 | 3.34350 | 3198 ft | 224 kts | 261° |
| 2026-05-01 15:11 | 45.80148 | 3.32157 | 2889 ft | 217 kts | 261° |
| 2026-05-01 15:12 | 45.79947 | 3.30070 | 2627 ft | 205 kts | 259° |
| 2026-05-01 15:12 | 45.79591 | 3.26384 | 2126 ft | 167 kts | 257° |
| 2026-05-01 15:12 | 45.79438 | 3.24793 | 1921 ft | 157 kts | 258° |
| 2026-05-01 15:13 | 45.78998 | 3.20349 | 1319 ft | 145 kts | 260° |
| 2026-05-01 15:14 | 45.78724 | 3.17568 | 1073 ft | 120 kts | 262° |
| 2026-05-01 15:14 | 45.78650 | 3.16790 | 1079 ft | 50 kts | 262° |
| 2026-05-01 15:14 | 45.78618 | 3.16239 | 1089 ft | 10 kts | 328° |
| 2026-05-01 15:15 | 45.78704 | 3.16163 | 1091 ft | 5 kts | 327° |
| 2026-05-01 15:15 | 45.78739 | 3.16134 | 1091 ft | 1 kts | 333° |
| 2026-05-01 15:16 | 45.78834 | 3.16063 | 1091 ft | 18 kts | 326° |
| 2026-05-01 15:16 | 45.78860 | 3.15832 | 1095 ft | 8 kts | 261° |
| 2026-05-01 15:17 | 45.78848 | 3.15709 | 1096 ft | 0 kts | 262° |
| 2026-05-01 15:18 | 45.78860 | 3.15719 | 1095 ft | 6 kts | 68° |
| 2026-05-01 15:18 | 45.78856 | 3.15789 | 1095 ft | 7 kts | 88° |
| 2026-05-01 15:19 | 45.78865 | 3.15982 | 1093 ft | 6 kts | 82° |
| 2026-05-01 15:19 | 45.78890 | 3.16150 | 1090 ft | 12 kts | 73° |
| 2026-05-01 15:19 | 45.78909 | 3.16263 | 1088 ft | 10 kts | 52° |
| 2026-05-01 15:20 | 45.78942 | 3.16258 | 1088 ft | 1 kts | 312° |
| 2026-05-01 15:20 | 45.78946 | 3.16250 | 1088 ft | 0 kts | 303° |
| 2026-05-01 15:20 | 45.78949 | 3.16244 | 1088 ft | 1 kts | 306° |
| 2026-05-01 15:21 | 45.78950 | 3.16242 | 1088 ft | 0 kts | 306° |